Time;durP1;ratioP1;P1;durP2;ratioP2;P2;SDS_P1;SDS_P2;PMS_P1;PMS_P2;Temp;Humidity;BMP_temperature;BMP_pressure;BME280_temperature;BME280_humidity;BME280_pressure;Samples;Min_cycle;Max_cycle;Signal;HPM_P1;HPM_P2
2022/07/17 00:00:21;;;;;;;7.93;5.77;;;19.70;72.20;;;;;;7012534;28;20943;-79
2022/07/17 00:03:43;;;;;;;8.70;4.33;;;19.60;72.60;;;;;;6999554;28;20478;-79
2022/07/17 00:07:05;;;;;;;7.55;5.20;;;19.70;72.00;;;;;;7024063;28;20437;-80
2022/07/17 00:10:28;;;;;;;7.85;5.47;;;19.60;72.80;;;;;;7027306;28;20429;-79
2022/07/17 00:13:50;;;;;;;8.95;6.28;;;19.70;72.90;;;;;;7026658;28;20896;-78
2022/07/17 00:17:14;;;;;;;8.20;6.15;;;19.60;72.90;;;;;;7041514;28;20436;-78
2022/07/17 00:20:36;;;;;;;8.10;5.70;;;19.40;73.10;;;;;;7034594;28;20435;-81
2022/07/17 00:23:58;;;;;;;8.30;5.60;;;19.30;73.60;;;;;;7025723;28;20429;-79
2022/07/17 00:27:21;;;;;;;7.90;5.80;;;19.10;74.00;;;;;;7025487;28;20426;-80
2022/07/17 00:30:43;;;;;;;9.38;5.60;;;19.10;74.30;;;;;;7036203;28;20447;-79
2022/07/17 00:34:06;;;;;;;7.80;5.47;;;19.10;74.70;;;;;;7054350;28;20430;-80
2022/07/17 00:37:28;;;;;;;7.97;5.13;;;19.10;75.30;;;;;;7029296;28;20484;-79
2022/07/17 00:40:50;;;;;;;6.55;4.60;;;19.00;75.00;;;;;;7024606;28;20430;-78
2022/07/17 00:44:13;;;;;;;9.60;5.23;;;18.90;75.50;;;;;;7030482;28;20969;-78
2022/07/17 00:47:51;;;;;;;8.55;5.80;;;19.00;75.40;;;;;;7027672;28;20438;-80
2022/07/17 00:51:15;;;;;;;9.10;5.78;;;18.80;75.30;;;;;;7025189;28;20787;-79
2022/07/17 00:54:40;;;;;;;7.60;5.10;;;18.70;75.90;;;;;;7025917;28;20968;-79
2022/07/17 00:58:06;;;;;;;7.35;4.90;;;18.60;76.50;;;;;;7049607;28;20471;-80
2022/07/17 01:01:28;;;;;;;7.50;4.40;;;18.60;76.80;;;;;;7033586;28;20996;-79
2022/07/17 01:04:50;;;;;;;7.88;4.15;;;18.60;76.80;;;;;;7024933;28;20437;-79
2022/07/17 01:08:14;;;;;;;7.53;3.88;;;18.60;77.30;;;;;;7023448;28;20785;-77
2022/07/17 01:11:36;;;;;;;7.40;4.10;;;18.50;77.30;;;;;;7027510;28;20433;-80
2022/07/17 01:14:58;;;;;;;7.18;4.57;;;18.50;77.20;;;;;;7032202;28;20468;-80
2022/07/17 01:18:21;;;;;;;7.72;5.10;;;18.40;77.30;;;;;;7029581;28;20497;-78
2022/07/17 01:21:47;;;;;;;7.95;5.90;;;18.30;77.70;;;;;;7053627;28;20671;-80
2022/07/17 01:25:10;;;;;;;6.88;4.90;;;18.20;78.30;;;;;;7025577;28;20437;-79
2022/07/17 01:28:32;;;;;;;8.27;4.80;;;18.20;78.60;;;;;;7027397;28;20426;-80
2022/07/17 01:31:55;;;;;;;6.93;4.38;;;18.40;78.80;;;;;;7026697;28;20429;-79
2022/07/17 01:35:17;;;;;;;8.38;4.70;;;18.40;78.50;;;;;;7025595;28;20946;-78
2022/07/17 01:38:41;;;;;;;5.95;4.63;;;18.30;78.10;;;;;;7034678;28;20909;-80
2022/07/17 01:42:03;;;;;;;8.02;4.90;;;18.20;79.00;;;;;;7028848;28;20433;-80
2022/07/17 01:45:25;;;;;;;8.00;5.05;;;18.00;79.50;;;;;;7023197;28;20903;-81
2022/07/17 01:48:47;;;;;;;8.07;5.38;;;17.80;80.10;;;;;;7027213;28;20429;-80
2022/07/17 01:52:09;;;;;;;9.20;5.35;;;17.70;80.90;;;;;;7018960;28;20430;-80
2022/07/17 01:55:32;;;;;;;9.52;5.30;;;17.60;81.40;;;;;;7030079;28;20466;-79
2022/07/17 01:58:54;;;;;;;9.07;6.23;;;17.50;81.90;;;;;;7044917;28;20535;-79
2022/07/17 02:02:17;;;;;;;7.82;5.75;;;17.30;82.60;;;;;;7022656;28;20441;-79
2022/07/17 02:05:39;;;;;;;8.38;5.28;;;17.20;83.20;;;;;;7012619;28;20431;-78
2022/07/17 02:09:01;;;;;;;8.05;4.88;;;17.20;84.10;;;;;;7026461;28;20452;-79
2022/07/17 02:12:24;;;;;;;6.63;4.68;;;17.30;84.30;;;;;;7023341;28;20834;-81
2022/07/17 02:15:46;;;;;;;7.53;4.53;;;17.40;83.60;;;;;;7021470;28;20432;-78
2022/07/17 02:19:09;;;;;;;8.13;4.80;;;17.40;83.50;;;;;;7023293;28;20434;-79
2022/07/17 02:22:31;;;;;;;6.97;4.70;;;17.40;83.70;;;;;;7050115;28;20431;-80
2022/07/17 02:25:53;;;;;;;7.43;4.60;;;17.30;83.80;;;;;;7043155;28;20919;-80
2022/07/17 02:29:16;;;;;;;6.97;4.40;;;17.30;83.90;;;;;;7026544;28;20913;-80
2022/07/17 02:32:38;;;;;;;6.95;4.20;;;17.30;84.40;;;;;;7030441;28;20445;-79
2022/07/17 02:36:01;;;;;;;7.00;4.22;;;17.40;84.20;;;;;;6995949;28;20427;-79
2022/07/17 02:39:23;;;;;;;7.10;4.23;;;17.40;84.40;;;;;;7010541;28;20773;-80
2022/07/17 02:42:45;;;;;;;5.60;4.03;;;17.40;84.80;;;;;;7021742;28;20430;-78
2022/07/17 02:46:09;;;;;;;6.40;4.15;;;17.40;84.50;;;;;;7026095;28;20441;-78
2022/07/17 02:49:31;;;;;;;6.60;4.13;;;17.30;84.60;;;;;;7027626;28;20428;-78
2022/07/17 02:52:53;;;;;;;6.32;4.28;;;17.10;85.10;;;;;;7026731;28;20426;-78
2022/07/17 02:56:15;;;;;;;6.15;4.30;;;17.00;85.80;;;;;;7023191;28;20892;-78
2022/07/17 02:59:38;;;;;;;6.45;3.97;;;16.90;86.40;;;;;;7043082;28;20440;-79
2022/07/17 03:03:01;;;;;;;5.68;4.03;;;17.00;86.50;;;;;;7038286;28;20433;-80
2022/07/17 03:06:23;;;;;;;6.47;4.10;;;17.10;86.10;;;;;;7023144;28;20421;-80
2022/07/17 03:09:45;;;;;;;5.93;3.95;;;16.90;86.20;;;;;;7037962;28;20453;-78
2022/07/17 03:13:07;;;;;;;8.13;4.23;;;17.00;86.40;;;;;;7021859;28;20426;-79
2022/07/17 03:16:29;;;;;;;6.80;3.97;;;17.00;86.50;;;;;;7022938;28;20464;-79
2022/07/17 03:19:53;;;;;;;5.93;3.85;;;17.00;86.10;;;;;;7029215;28;20431;-79
2022/07/17 03:23:15;;;;;;;6.53;4.10;;;16.80;86.40;;;;;;7050983;28;20797;-78
2022/07/17 03:26:37;;;;;;;6.47;4.05;;;16.60;87.20;;;;;;7014474;28;20928;-78
2022/07/17 03:29:59;;;;;;;7.37;4.10;;;16.50;88.00;;;;;;7035911;28;20439;-79
2022/07/17 03:33:21;;;;;;;5.82;3.92;;;16.50;88.30;;;;;;7047544;28;20425;-78
2022/07/17 03:36:45;;;;;;;7.05;4.10;;;16.40;88.30;;;;;;6999955;28;20431;-79
2022/07/17 03:40:09;;;;;;;6.85;4.30;;;16.30;89.30;;;;;;7020616;28;20918;-79
2022/07/17 03:43:31;;;;;;;7.45;4.20;;;16.20;89.10;;;;;;7027881;28;20477;-79
2022/07/17 03:46:54;;;;;;;5.87;4.03;;;16.20;89.30;;;;;;7027812;28;20515;-77
2022/07/17 03:50:16;;;;;;;6.20;4.30;;;16.20;89.20;;;;;;7037825;28;20885;-78
2022/07/17 03:53:39;;;;;;;5.97;4.20;;;16.20;89.40;;;;;;7037398;28;20453;-76
2022/07/17 03:57:01;;;;;;;6.38;4.10;;;16.20;89.70;;;;;;7018375;28;20474;-78
2022/07/17 04:00:23;;;;;;;6.32;4.22;;;16.20;89.80;;;;;;7024973;28;20945;-79
2022/07/17 04:03:45;;;;;;;6.00;3.93;;;16.20;89.50;;;;;;7017304;28;20478;-79
2022/07/17 04:07:26;;;;;;;7.32;4.10;;;16.10;90.00;;;;;;7006756;28;20485;-78
2022/07/17 04:10:49;;;;;;;8.35;4.20;;;16.10;90.40;;;;;;7025570;28;21181;-79
2022/07/17 04:14:12;;;;;;;7.15;4.07;;;16.10;90.50;;;;;;7026943;28;20465;-78
2022/07/17 04:17:34;;;;;;;6.20;3.90;;;16.20;90.50;;;;;;7022237;28;20443;-78
2022/07/17 04:21:00;;;;;;;6.03;3.80;;;16.30;90.20;;;;;;7044221;28;20428;-78
2022/07/17 04:24:22;;;;;;;6.82;4.28;;;16.20;90.10;;;;;;7040395;28;20433;-78
2022/07/17 04:27:46;;;;;;;7.57;4.60;;;16.10;90.50;;;;;;7025661;28;20486;-78
2022/07/17 04:31:08;;;;;;;6.53;4.13;;;16.10;90.70;;;;;;7028953;28;20787;-79
2022/07/17 04:34:32;;;;;;;7.28;4.38;;;16.10;90.90;;;;;;7025366;28;20428;-79
2022/07/17 04:37:54;;;;;;;6.72;4.50;;;16.20;90.90;;;;;;7025143;28;20919;-78
2022/07/17 04:41:16;;;;;;;6.93;4.32;;;16.20;90.90;;;;;;7025094;28;20430;-79
2022/07/17 04:44:40;;;;;;;6.35;4.20;;;16.20;90.90;;;;;;7026626;28;20472;-77
2022/07/17 04:48:02;;;;;;;6.20;4.50;;;16.20;91.20;;;;;;7025334;28;20489;-78
2022/07/17 04:51:24;;;;;;;6.32;4.60;;;16.10;91.40;;;;;;7033383;28;20426;-76
2022/07/17 04:54:46;;;;;;;6.93;4.97;;;16.00;91.60;;;;;;7025947;28;20444;-79
2022/07/17 04:58:08;;;;;;;6.68;4.72;;;16.00;91.90;;;;;;7028890;28;20477;-79
2022/07/17 05:01:32;;;;;;;7.45;5.10;;;16.00;92.10;;;;;;7024946;28;20430;-78
2022/07/17 05:04:54;;;;;;;8.20;4.80;;;15.50;92.60;;;;;;7025619;28;20788;-80
2022/07/17 05:08:16;;;;;;;8.88;4.70;;;15.90;92.80;;;;;;7035195;28;20466;-78
2022/07/17 05:11:38;;;;;;;7.03;4.38;;;16.30;92.50;;;;;;6997403;28;20498;-78
2022/07/17 05:15:00;;;;;;;6.13;4.25;;;16.50;91.80;;;;;;7013421;28;20426;-75
2022/07/17 05:18:23;;;;;;;5.97;4.10;;;16.70;91.30;;;;;;7025345;28;20479;-78
2022/07/17 05:21:45;;;;;;;5.60;3.50;;;16.90;91.00;;;;;;7049511;28;20431;-80
2022/07/17 05:25:09;;;;;;;5.47;3.50;;;17.40;91.20;;;;;;7021949;28;20877;-78
2022/07/17 05:28:31;;;;;;;6.68;3.80;;;18.20;88.90;;;;;;7019014;28;20559;-79
2022/07/17 05:31:53;;;;;;;6.60;3.87;;;18.20;87.30;;;;;;7018354;28;20535;-81
2022/07/17 05:35:17;;;;;;;5.95;3.80;;;17.90;88.10;;;;;;7003480;28;20442;-80
2022/07/17 05:38:39;;;;;;;6.40;4.10;;;17.60;89.00;;;;;;6996537;28;20439;-78
2022/07/17 05:42:01;;;;;;;6.72;4.07;;;17.40;89.60;;;;;;7016220;28;20527;-79
2022/07/17 05:45:23;;;;;;;7.57;4.40;;;17.30;90.20;;;;;;7027161;28;20429;-78
2022/07/17 05:48:45;;;;;;;6.80;4.00;;;17.10;90.40;;;;;;7024251;28;20463;-82
2022/07/17 05:52:08;;;;;;;6.07;4.00;;;17.00;90.40;;;;;;7029126;28;20428;-77
2022/07/17 05:55:30;;;;;;;5.23;3.70;;;17.00;90.30;;;;;;7052448;28;20431;-78
2022/07/17 05:58:52;;;;;;;6.95;3.90;;;17.20;90.30;;;;;;7031449;28;20437;-77
2022/07/17 06:02:14;;;;;;;7.00;3.90;;;17.30;90.10;;;;;;7026563;28;20476;-79
2022/07/17 06:05:37;;;;;;;7.00;4.28;;;17.20;90.00;;;;;;7041889;28;20439;-77
2022/07/17 06:09:01;;;;;;;5.80;4.03;;;17.30;90.10;;;;;;7042369;28;20912;-79
2022/07/17 06:12:23;;;;;;;6.90;4.18;;;17.40;89.80;;;;;;7018280;28;20433;-79
2022/07/17 06:15:45;;;;;;;7.70;4.32;;;17.30;90.40;;;;;;7022377;28;20473;-80
2022/07/17 06:19:07;;;;;;;8.20;4.82;;;17.20;90.00;;;;;;7018309;28;20453;-78
2022/07/17 06:22:29;;;;;;;6.88;4.32;;;17.30;90.20;;;;;;7042292;28;20424;-78
2022/07/17 06:25:53;;;;;;;6.60;4.33;;;17.20;90.10;;;;;;7021795;28;20436;-80
2022/07/17 06:29:15;;;;;;;8.17;4.67;;;17.20;90.80;;;;;;7040294;28;20527;-80
2022/07/17 06:32:37;;;;;;;7.63;4.82;;;17.30;89.00;;;;;;7019359;28;20534;-82
2022/07/17 06:35:59;;;;;;;7.30;4.55;;;17.50;89.30;;;;;;7047128;28;20827;-79
2022/07/17 06:39:21;;;;;;;8.63;4.70;;;17.60;89.30;;;;;;7027657;28;21040;-77
2022/07/17 06:42:46;;;;;;;7.72;4.80;;;17.40;90.10;;;;;;7028495;28;20432;-78
2022/07/17 06:46:08;;;;;;;6.90;4.38;;;17.60;90.30;;;;;;7023748;28;20642;-78
2022/07/17 06:49:30;;;;;;;7.95;4.38;;;17.80;90.40;;;;;;7048860;28;20452;-79
2022/07/17 06:52:52;;;;;;;7.80;4.20;;;18.00;90.30;;;;;;7020571;28;21104;-78
2022/07/17 06:56:14;;;;;;;7.30;4.35;;;18.20;90.00;;;;;;7008752;28;20971;-78
2022/07/17 06:59:38;;;;;;;8.15;4.35;;;18.30;88.60;;;;;;7044437;28;20484;-78
2022/07/17 07:03:00;;;;;;;6.55;3.80;;;18.40;86.50;;;;;;7013648;28;20513;-78
2022/07/17 07:06:22;;;;;;;6.97;3.97;;;18.50;86.20;;;;;;7028518;28;20421;-80
2022/07/17 07:09:44;;;;;;;6.93;3.83;;;18.60;84.80;;;;;;7030952;28;20481;-78
2022/07/17 07:13:06;;;;;;;5.78;3.40;;;18.70;83.40;;;;;;7008947;28;20485;-80
2022/07/17 07:16:29;;;;;;;6.03;3.42;;;18.80;82.90;;;;;;7032438;28;20433;-78
2022/07/17 07:19:52;;;;;;;6.03;3.17;;;18.90;81.70;;;;;;7028728;28;20930;-79
2022/07/17 07:23:14;;;;;;;6.13;3.10;;;19.00;81.10;;;;;;7046740;28;20785;-77
2022/07/17 07:26:36;;;;;;;8.35;3.22;;;19.10;79.50;;;;;;7052295;28;20425;-84
2022/07/17 07:29:58;;;;;;;5.82;3.20;;;19.20;78.50;;;;;;7030418;28;20531;-81
2022/07/17 07:33:22;;;;;;;5.65;3.20;;;19.30;79.60;;;;;;7027642;28;20425;-81
2022/07/17 07:36:44;;;;;;;6.97;3.20;;;19.40;79.20;;;;;;7044340;28;20477;-81
2022/07/17 07:40:08;;;;;;;5.88;3.35;;;19.50;78.80;;;;;;7056307;28;20459;-81
2022/07/17 07:43:30;;;;;;;5.40;3.20;;;19.60;78.20;;;;;;7030651;28;20441;-83
2022/07/17 07:46:52;;;;;;;6.45;3.33;;;19.70;78.50;;;;;;7029563;28;20425;-82
2022/07/17 07:50:16;;;;;;;5.55;3.03;;;19.80;77.40;;;;;;7036659;28;20433;-79
2022/07/17 07:53:38;;;;;;;6.10;3.03;;;19.90;76.60;;;;;;7046508;28;20462;-80
2022/07/17 07:57:00;;;;;;;6.10;3.03;;;20.00;75.60;;;;;;7028670;28;20830;-81
2022/07/17 08:00:23;;;;;;;4.80;3.00;;;20.00;76.10;;;;;;7004963;28;20525;-82
2022/07/17 08:03:45;;;;;;;6.57;3.30;;;20.10;76.70;;;;;;7019498;28;20425;-82
2022/07/17 08:07:08;;;;;;;6.33;2.93;;;20.20;75.70;;;;;;7023033;28;20426;-82
2022/07/17 08:10:30;;;;;;;5.22;3.00;;;20.30;76.00;;;;;;7036378;28;20899;-80
2022/07/17 08:13:52;;;;;;;5.25;2.80;;;20.40;74.40;;;;;;7024169;28;20511;-80
2022/07/17 08:17:15;;;;;;;4.75;2.80;;;20.50;73.90;;;;;;7030148;28;20518;-79
2022/07/17 08:20:37;;;;;;;4.28;2.50;;;20.50;74.20;;;;;;7029080;28;20476;-79
2022/07/17 08:24:00;;;;;;;4.70;2.33;;;20.60;73.70;;;;;;7027018;28;20461;-77
2022/07/17 08:27:22;;;;;;;4.33;2.40;;;20.70;71.50;;;;;;7036714;28;20453;-78
2022/07/17 08:30:44;;;;;;;6.03;2.55;;;20.80;71.30;;;;;;7016287;28;20484;-78
2022/07/17 08:34:06;;;;;;;5.77;2.60;;;20.90;72.30;;;;;;7017153;28;20825;-78
2022/07/17 08:37:29;;;;;;;5.93;2.67;;;21.00;71.60;;;;;;7025118;28;20893;-78
2022/07/17 08:40:53;;;;;;;5.10;2.70;;;21.10;71.20;;;;;;7047847;28;20436;-79
2022/07/17 08:44:15;;;;;;;6.13;2.83;;;21.20;71.00;;;;;;7012334;28;20429;-78
2022/07/17 08:47:39;;;;;;;6.90;2.70;;;21.20;73.10;;;;;;7004719;28;20455;-78
2022/07/17 08:51:01;;;;;;;5.60;2.80;;;21.40;72.90;;;;;;6998090;28;20517;-80
2022/07/17 08:54:24;;;;;;;6.77;2.97;;;21.40;72.70;;;;;;7013355;28;20554;-79
2022/07/17 08:57:47;;;;;;;7.15;3.80;;;21.50;71.70;;;;;;7029446;28;20433;-80
2022/07/17 09:01:09;;;;;;;4.88;2.55;;;21.50;71.80;;;;;;7035518;28;20433;-79
2022/07/17 09:04:31;;;;;;;6.20;2.53;;;21.60;73.40;;;;;;7048113;28;20446;-79
2022/07/17 09:07:53;;;;;;;4.07;2.50;;;21.70;71.20;;;;;;7033079;28;20430;-79
2022/07/17 09:11:16;;;;;;;5.05;2.58;;;21.80;70.30;;;;;;7023942;28;20886;-79
2022/07/17 09:14:41;;;;;;;5.93;2.67;;;21.90;72.00;;;;;;7029021;28;20428;-80
2022/07/17 09:18:04;;;;;;;4.10;2.40;;;22.00;71.10;;;;;;7004533;28;20439;-78
2022/07/17 09:21:27;;;;;;;3.78;2.33;;;22.10;71.10;;;;;;7018321;28;20919;-78
2022/07/17 09:24:52;;;;;;;4.90;2.40;;;22.20;68.90;;;;;;7027822;28;20461;-80
2022/07/17 09:28:15;;;;;;;4.50;2.40;;;22.20;70.30;;;;;;7018826;28;21086;-76
2022/07/17 09:31:39;;;;;;;4.53;2.40;;;22.30;68.20;;;;;;7021876;28;20908;-78
2022/07/17 09:35:03;;;;;;;4.85;2.20;;;22.40;66.10;;;;;;7041634;28;20435;-79
2022/07/17 09:38:31;;;;;;;6.80;2.30;;;22.50;65.90;;;;;;7048128;28;20428;-79
2022/07/17 09:41:53;;;;;;;4.68;2.20;;;22.50;64.30;;;;;;7031690;28;20905;-80
2022/07/17 09:45:15;;;;;;;6.33;2.30;;;22.60;64.00;;;;;;7027659;28;20428;-78
2022/07/17 09:48:47;;;;;;;4.10;2.20;;;22.50;63.80;;;;;;7033204;28;20443;-78
2022/07/17 09:52:09;;;;;;;4.90;2.10;;;22.60;64.20;;;;;;7052452;28;20841;-80
2022/07/17 09:55:32;;;;;;;5.30;2.40;;;22.60;63.30;;;;;;7052832;28;20420;-80
2022/07/17 09:58:57;;;;;;;4.15;2.22;;;22.70;63.20;;;;;;7052330;28;20770;-80
2022/07/17 10:02:21;;;;;;;4.65;2.33;;;22.70;62.30;;;;;;7052572;28;20460;-81
2022/07/17 10:05:45;;;;;;;5.32;2.88;;;22.70;62.10;;;;;;7052019;28;20456;-80
2022/07/17 10:09:07;;;;;;;4.68;2.20;;;22.80;62.30;;;;;;7052253;28;20431;-79
2022/07/17 10:12:30;;;;;;;4.28;2.20;;;22.90;62.30;;;;;;7052592;28;20428;-80
2022/07/17 10:15:52;;;;;;;4.00;1.85;;;22.90;61.10;;;;;;7052204;28;20427;-81
2022/07/17 10:19:20;;;;;;;3.95;1.80;;;22.90;59.60;;;;;;7051940;28;20439;-81
2022/07/17 10:22:45;;;;;;;5.15;1.70;;;23.00;57.50;;;;;;7053017;28;21098;-79
2022/07/17 10:26:07;;;;;;;3.70;1.80;;;23.00;56.30;;;;;;7052788;28;20432;-80
2022/07/17 10:29:35;;;;;;;5.60;1.85;;;23.10;56.90;;;;;;7052704;28;20428;-81
2022/07/17 10:32:59;;;;;;;3.95;1.85;;;23.20;57.10;;;;;;7056014;28;20902;-79
2022/07/17 10:36:33;;;;;;;3.83;1.95;;;23.20;57.10;;;;;;7052776;28;20917;-78
2022/07/17 10:40:02;;;;;;;4.00;1.80;;;23.30;57.50;;;;;;7054791;28;20443;-80
2022/07/17 10:43:24;;;;;;;3.53;1.70;;;23.30;56.80;;;;;;7054836;28;20420;-81
2022/07/17 10:46:47;;;;;;;3.90;1.70;;;23.40;57.20;;;;;;7053362;28;20446;-80
2022/07/17 10:50:09;;;;;;;3.15;1.73;;;23.50;56.50;;;;;;7052569;28;20429;-81
2022/07/17 10:53:33;;;;;;;4.53;1.70;;;23.60;57.70;;;;;;7051590;28;20428;-81
2022/07/17 10:57:01;;;;;;;7.35;4.55;;;23.60;54.50;;;;;;7051578;28;20763;-79
2022/07/17 11:00:24;;;;;;;6.53;3.37;;;23.70;54.90;;;;;;7051442;28;20509;-80
2022/07/17 11:03:48;;;;;;;7.20;4.30;;;23.80;53.70;;;;;;7051254;28;20420;-81
2022/07/17 11:07:10;;;;;;;4.40;1.88;;;23.70;54.50;;;;;;7053886;28;20446;-80
2022/07/17 11:10:32;;;;;;;4.23;2.20;;;23.80;54.60;;;;;;7051665;28;20516;-81
2022/07/17 11:13:56;;;;;;;4.80;2.00;;;23.90;54.80;;;;;;7051486;28;20420;-81
2022/07/17 11:17:20;;;;;;;3.10;1.77;;;24.00;56.50;;;;;;7052967;28;20477;-79
2022/07/17 11:20:54;;;;;;;3.85;1.80;;;24.10;54.10;;;;;;7052135;28;20795;-81
2022/07/17 11:24:16;;;;;;;4.87;1.60;;;24.10;53.50;;;;;;7053603;28;20412;-79
2022/07/17 11:27:39;;;;;;;4.75;1.70;;;24.10;53.40;;;;;;7045039;28;20924;-80
2022/07/17 11:31:05;;;;;;;3.83;1.60;;;24.30;54.90;;;;;;7023586;28;20425;-79
2022/07/17 11:34:28;;;;;;;4.43;1.67;;;24.50;52.30;;;;;;7005525;28;20422;-80
2022/07/17 11:37:51;;;;;;;3.03;1.60;;;24.80;51.70;;;;;;7023152;28;20433;-81
2022/07/17 11:41:13;;;;;;;3.53;1.42;;;24.90;49.90;;;;;;7022790;28;20449;-80
2022/07/17 11:44:35;;;;;;;4.30;1.63;;;25.10;51.80;;;;;;7022983;28;20429;-80
2022/07/17 11:48:04;;;;;;;3.83;1.60;;;25.30;50.90;;;;;;7022817;28;20943;-80
2022/07/17 11:51:37;;;;;;;2.88;1.45;;;25.40;51.10;;;;;;7027984;28;20426;-80
2022/07/17 11:54:59;;;;;;;4.47;2.67;;;25.40;48.40;;;;;;7027819;28;20424;-79
2022/07/17 11:58:21;;;;;;;4.50;2.58;;;25.50;47.80;;;;;;7028098;28;20437;-80
2022/07/17 12:01:45;;;;;;;5.13;3.08;;;25.60;47.50;;;;;;7027488;28;20930;-80
2022/07/17 12:05:10;;;;;;;3.92;1.90;;;25.70;46.30;;;;;;7027262;28;20441;-79
2022/07/17 12:08:32;;;;;;;4.40;2.50;;;25.70;46.50;;;;;;7027736;28;20429;-80
2022/07/17 12:11:55;;;;;;;4.78;1.85;;;25.90;48.00;;;;;;7027249;28;20792;-80
2022/07/17 12:15:17;;;;;;;3.00;1.60;;;26.10;49.00;;;;;;7027755;28;20919;-80
2022/07/17 12:18:39;;;;;;;3.50;1.65;;;26.20;47.10;;;;;;7027237;28;20468;-81
2022/07/17 12:22:04;;;;;;;3.45;1.70;;;26.30;46.50;;;;;;7027240;28;20438;-80
2022/07/17 12:25:28;;;;;;;3.03;1.40;;;26.20;44.10;;;;;;7027246;28;20460;-81
2022/07/17 12:28:51;;;;;;;3.13;1.40;;;26.30;44.80;;;;;;7026793;28;20430;-79
2022/07/17 12:32:15;;;;;;;3.13;1.70;;;26.50;45.10;;;;;;7027154;28;20426;-79
2022/07/17 12:35:37;;;;;;;3.07;1.67;;;26.70;45.20;;;;;;7026730;28;20788;-80
2022/07/17 12:39:01;;;;;;;3.50;1.50;;;26.90;45.20;;;;;;7021501;28;20440;-78
2022/07/17 12:42:25;;;;;;;3.10;1.30;;;26.90;43.10;;;;;;7023215;28;20436;-79
2022/07/17 12:45:47;;;;;;;3.80;1.90;;;26.90;42.60;;;;;;7006143;28;20493;-78
2022/07/17 12:49:09;;;;;;;3.80;1.60;;;26.90;42.70;;;;;;7010869;28;20437;-78
2022/07/17 12:52:32;;;;;;;3.35;1.40;;;27.10;44.00;;;;;;7019848;28;20466;-79
2022/07/17 12:55:55;;;;;;;3.42;1.67;;;27.20;44.80;;;;;;7006574;28;20501;-79
2022/07/17 12:59:17;;;;;;;3.37;1.50;;;27.30;44.20;;;;;;6993375;28;20928;-80
2022/07/17 13:02:40;;;;;;;2.75;1.40;;;27.50;44.10;;;;;;7046927;28;20436;-80
2022/07/17 13:06:02;;;;;;;4.68;2.20;;;27.50;42.30;;;;;;7050088;28;20470;-82
2022/07/17 13:09:24;;;;;;;3.30;1.60;;;27.60;44.20;;;;;;7047853;28;20432;-81
2022/07/17 13:12:48;;;;;;;3.03;1.50;;;27.60;44.80;;;;;;7018811;28;20803;-81
2022/07/17 13:16:11;;;;;;;3.40;1.30;;;27.70;43.00;;;;;;7021772;28;20450;-81
2022/07/17 13:19:34;;;;;;;3.35;1.30;;;27.80;40.70;;;;;;7021491;28;20463;-80
2022/07/17 13:22:56;;;;;;;3.90;1.40;;;27.90;40.60;;;;;;7045478;28;20939;-81
2022/07/17 13:26:18;;;;;;;2.92;1.50;;;27.80;39.80;;;;;;7037080;28;20441;-79
2022/07/17 13:29:41;;;;;;;3.08;1.50;;;28.00;41.60;;;;;;7032885;28;20431;-80
2022/07/17 13:33:04;;;;;;;3.40;1.40;;;28.20;40.70;;;;;;7025944;28;20429;-80
2022/07/17 13:36:26;;;;;;;3.33;1.35;;;28.30;40.80;;;;;;7048194;28;20435;-79
2022/07/17 13:39:48;;;;;;;3.93;1.50;;;28.50;41.30;;;;;;7045856;28;20440;-80
2022/07/17 13:43:10;;;;;;;3.70;1.50;;;28.40;41.40;;;;;;7019002;28;20466;-80
2022/07/17 13:46:34;;;;;;;2.63;1.40;;;28.60;40.80;;;;;;7029439;28;20430;-81
2022/07/17 13:49:56;;;;;;;3.47;1.80;;;28.70;40.30;;;;;;7019883;28;20435;-80
2022/07/17 13:53:18;;;;;;;3.08;1.40;;;28.80;41.60;;;;;;7020768;28;20433;-80
2022/07/17 13:56:40;;;;;;;3.70;1.70;;;28.90;42.00;;;;;;7035736;28;21198;-81
2022/07/17 14:00:03;;;;;;;5.55;1.50;;;29.00;41.40;;;;;;7048521;28;20514;-81
2022/07/17 14:03:26;;;;;;;3.50;1.73;;;29.00;40.40;;;;;;7024474;28;20433;-80
2022/07/17 14:06:49;;;;;;;4.63;2.03;;;29.20;40.70;;;;;;7038193;28;20423;-81
2022/07/17 14:10:11;;;;;;;3.63;1.80;;;29.50;40.50;;;;;;7042254;28;20431;-80
2022/07/17 14:13:33;;;;;;;3.05;1.30;;;29.50;40.20;;;;;;7030920;28;20492;-81
2022/07/17 14:16:55;;;;;;;3.10;1.58;;;29.30;39.00;;;;;;7017290;28;21052;-81
2022/07/17 14:20:18;;;;;;;5.00;1.92;;;29.30;39.50;;;;;;7036717;28;20475;-81
2022/07/17 14:23:40;;;;;;;3.75;1.48;;;29.60;40.00;;;;;;7025232;28;20443;-80
2022/07/17 14:27:03;;;;;;;4.10;1.70;;;29.50;38.80;;;;;;7048239;28;20459;-80
2022/07/17 14:30:25;;;;;;;2.88;1.50;;;29.80;40.90;;;;;;6995459;28;20434;-81
2022/07/17 14:33:49;;;;;;;3.47;1.95;;;29.90;40.40;;;;;;6991154;28;20407;-82
2022/07/17 14:37:13;;;;;;;4.78;2.40;;;30.10;39.90;;;;;;7019978;28;20464;-79
2022/07/17 14:40:35;;;;;;;3.07;1.53;;;30.00;40.90;;;;;;7019628;28;20433;-80
2022/07/17 14:43:57;;;;;;;3.77;1.50;;;29.90;40.70;;;;;;7015506;28;20425;-82
2022/07/17 14:47:19;;;;;;;3.90;1.58;;;29.80;39.40;;;;;;7010006;28;20936;-81
2022/07/17 14:50:41;;;;;;;3.00;1.50;;;30.00;40.90;;;;;;6994576;28;20443;-81
2022/07/17 14:54:05;;;;;;;3.92;1.60;;;30.20;40.50;;;;;;7017968;28;20471;-81
2022/07/17 14:57:27;;;;;;;3.30;1.50;;;30.30;39.40;;;;;;7010373;28;20457;-80
2022/07/17 15:00:50;;;;;;;3.10;1.50;;;30.30;38.00;;;;;;7002053;28;20475;-81
2022/07/17 15:04:12;;;;;;;3.72;1.50;;;30.30;39.00;;;;;;7019507;28;20437;-81
2022/07/17 15:07:34;;;;;;;3.20;1.50;;;30.30;39.40;;;;;;6988992;28;20470;-81
2022/07/17 15:10:57;;;;;;;3.08;1.52;;;30.40;39.90;;;;;;7012620;28;20558;-79
2022/07/17 15:14:20;;;;;;;3.35;1.50;;;30.50;39.80;;;;;;7009057;28;20438;-80
2022/07/17 15:17:42;;;;;;;3.20;1.38;;;30.50;39.40;;;;;;6989938;28;20480;-80
2022/07/17 15:21:05;;;;;;;3.58;1.60;;;30.50;40.10;;;;;;6991467;28;20454;-79
2022/07/17 15:24:27;;;;;;;3.50;1.70;;;30.50;39.40;;;;;;6996045;28;20442;-83
2022/07/17 15:27:50;;;;;;;3.00;1.52;;;30.60;39.00;;;;;;7006009;28;20462;-83
2022/07/17 15:31:12;;;;;;;2.80;1.50;;;30.80;38.50;;;;;;7025383;28;20438;-82
2022/07/17 15:34:35;;;;;;;3.58;1.45;;;30.80;37.90;;;;;;7025305;28;20773;-84
2022/07/17 15:37:58;;;;;;;3.10;1.73;;;30.70;39.40;;;;;;7027972;28;20425;-83
2022/07/17 15:41:20;;;;;;;3.78;1.50;;;31.00;39.80;;;;;;7043480;28;20854;-83
2022/07/17 15:44:43;;;;;;;3.63;1.50;;;31.20;39.80;;;;;;7031128;28;20437;-82
2022/07/17 15:48:06;;;;;;;3.25;1.60;;;31.20;38.90;;;;;;7019043;28;20868;-86
2022/07/17 15:51:29;;;;;;;2.90;1.60;;;31.30;39.20;;;;;;7028928;28;20484;-80
2022/07/17 15:54:51;;;;;;;3.13;1.58;;;31.50;39.10;;;;;;7021748;28;20433;-80
2022/07/17 15:58:13;;;;;;;2.65;1.40;;;31.40;38.80;;;;;;7017536;28;20828;-82
2022/07/17 16:01:36;;;;;;;2.97;1.52;;;31.50;38.30;;;;;;7018778;28;20441;-79
2022/07/17 16:04:58;;;;;;;3.20;1.45;;;31.70;38.60;;;;;;7027254;28;20541;-79
2022/07/17 16:08:20;;;;;;;3.38;1.45;;;31.70;38.50;;;;;;7050872;28;20456;-79
2022/07/17 16:11:42;;;;;;;3.08;1.60;;;32.00;38.00;;;;;;7037575;28;20422;-79
2022/07/17 16:15:05;;;;;;;2.60;1.40;;;32.50;37.10;;;;;;7024761;28;20469;-79
2022/07/17 16:18:28;;;;;;;3.07;1.43;;;32.60;38.00;;;;;;7023049;28;20943;-78
2022/07/17 16:21:50;;;;;;;2.72;1.58;;;32.60;38.00;;;;;;7046375;28;20519;-81
2022/07/17 16:25:13;;;;;;;12.53;9.17;;;32.30;38.80;;;;;;7029200;28;20464;-78
2022/07/17 16:28:35;;;;;;;10.30;8.00;;;32.20;38.90;;;;;;7020836;28;20805;-81
2022/07/17 16:31:57;;;;;;;5.55;4.07;;;32.20;38.60;;;;;;7020393;28;21060;-80
2022/07/17 16:35:20;;;;;;;3.70;1.80;;;32.00;38.70;;;;;;7018341;28;20434;-80
2022/07/17 16:38:43;;;;;;;3.70;1.40;;;32.00;39.70;;;;;;7030130;28;20432;-78
2022/07/17 16:42:05;;;;;;;3.03;1.48;;;32.00;39.50;;;;;;7048941;28;20505;-77
2022/07/17 16:45:27;;;;;;;3.30;1.50;;;32.00;39.60;;;;;;7033868;28;20917;-78
2022/07/17 16:48:49;;;;;;;3.77;1.50;;;32.10;39.80;;;;;;7023735;28;20432;-78
2022/07/17 16:52:12;;;;;;;3.50;1.53;;;32.30;39.60;;;;;;7046513;28;20432;-82
2022/07/17 16:55:37;;;;;;;2.70;1.48;;;32.40;39.00;;;;;;7027813;28;20456;-80
2022/07/17 16:58:59;;;;;;;3.20;1.55;;;32.40;37.60;;;;;;7035449;28;20429;-82
2022/07/17 17:02:21;;;;;;;3.67;1.55;;;32.50;38.40;;;;;;7018456;28;20811;-84
2022/07/17 17:05:43;;;;;;;3.80;1.60;;;32.50;37.20;;;;;;7020928;28;20477;-82
2022/07/17 17:09:07;;;;;;;3.92;2.05;;;32.40;39.00;;;;;;7020067;28;20950;-85
2022/07/17 17:12:29;;;;;;;3.35;1.70;;;32.30;39.70;;;;;;7020942;28;20472;-84
2022/07/17 17:15:51;;;;;;;3.50;1.40;;;32.40;39.40;;;;;;7016835;28;20492;-83
2022/07/17 17:19:13;;;;;;;3.35;1.35;;;32.50;38.20;;;;;;7020795;28;20843;-84
2022/07/17 17:22:35;;;;;;;3.43;1.60;;;32.50;39.60;;;;;;7017055;28;20482;-84
2022/07/17 17:25:59;;;;;;;4.20;1.50;;;32.40;38.90;;;;;;7018131;28;20468;-82
2022/07/17 17:29:21;;;;;;;3.75;1.77;;;32.40;39.70;;;;;;7026180;28;20470;-84
2022/07/17 17:32:45;;;;;;;4.00;1.50;;;32.60;40.10;;;;;;7039588;28;20508;-85
2022/07/17 17:36:07;;;;;;;3.03;1.83;;;32.40;38.80;;;;;;7021624;28;20434;-84